Wetterdaten: Woche 09.06.14 - 15.06.14 (KW24)
Datum Zeit Temp. A. Feuchte A. Luftdruck Regen Wind Richtung Taupunkt Windchill Windben
09.06.2014 00:00 18,2 C 73 % 1019,5 hPa 0,0 l/m 0,1 km/h N 13,3 C 18,2 C 2,4 km/h
09.06.2014 01:00 17,4 C 76 % 1019,3 hPa 0,0 l/m 0,0 km/h N 13,1 C 17,4 C 0,0 km/h
09.06.2014 02:00 16,3 C 79 % 1019,2 hPa 0,0 l/m 0,0 km/h N 12,6 C 16,3 C 1,2 km/h
09.06.2014 03:00 15,4 C 82 % 1019,1 hPa 0,0 l/m 0,0 km/h N 12,3 C 15,4 C 0,0 km/h
09.06.2014 04:00 14,8 C 83 % 1018,9 hPa 0,0 l/m 0,0 km/h N 11,9 C 14,8 C 0,0 km/h
09.06.2014 05:00 14,4 C 83 % 1018,9 hPa 0,0 l/m 0,0 km/h N 11,5 C 14,4 C 0,0 km/h
09.06.2014 06:00 15,0 C 82 % 1019,2 hPa 0,0 l/m 0,0 km/h N 11,8 C 15,0 C 0,0 km/h
09.06.2014 07:00 17,0 C 81 % 1019,4 hPa 0,0 l/m 0,0 km/h N 13,6 C 17,0 C 1,2 km/h
09.06.2014 08:00 21,9 C 74 % 1019,3 hPa 0,0 l/m 0,4 km/h N 16,9 C 21,9 C 4,4 km/h
09.06.2014 09:00 25,5 C 63 % 1019,3 hPa 0,0 l/m 0,6 km/h N 17,9 C 25,5 C 6,0 km/h
09.06.2014 10:00 27,7 C 60 % 1019,3 hPa 0,0 l/m 2,2 km/h N 19,1 C 27,7 C 9,3 km/h
09.06.2014 11:00 29,8 C 52 % 1019,0 hPa 0,0 l/m 3,9 km/h N 18,7 C 29,8 C 18,5 km/h
09.06.2014 12:00 30,8 C 49 % 1018,8 hPa 0,0 l/m 5,9 km/h N 18,8 C 30,7 C 18,1 km/h
09.06.2014 13:00 31,6 C 48 % 1018,6 hPa 0,0 l/m 4,6 km/h N 19,1 C 31,6 C 18,5 km/h
09.06.2014 14:00 32,3 C 45 % 1018,3 hPa 0,0 l/m 4,1 km/h N 18,8 C 32,3 C 16,1 km/h
09.06.2014 15:00 31,9 C 40 % 1018,1 hPa 0,0 l/m 4,8 km/h N 16,6 C 31,9 C 16,9 km/h
09.06.2014 16:00 31,4 C 39 % 1017,6 hPa 0,0 l/m 4,9 km/h N 15,9 C 31,4 C 19,3 km/h
09.06.2014 17:00 31,6 C 38 % 1017,1 hPa 0,0 l/m 5,2 km/h N 15,5 C 31,6 C 16,9 km/h
09.06.2014 18:00 31,2 C 40 % 1016,8 hPa 0,0 l/m 4,1 km/h N 16,0 C 31,2 C 16,5 km/h
09.06.2014 19:00 30,6 C 45 % 1016,7 hPa 0,0 l/m 1,5 km/h N 17,2 C 30,6 C 7,2 km/h
09.06.2014 20:00 29,3 C 50 % 1016,7 hPa 0,0 l/m 0,0 km/h N 17,7 C 29,3 C 1,2 km/h
09.06.2014 21:00 24,6 C 62 % 1017,0 hPa 0,0 l/m 0,0 km/h N 16,8 C 24,6 C 0,4 km/h
09.06.2014 22:00 21,2 C 74 % 1017,4 hPa 0,0 l/m 0,0 km/h N 16,2 C 21,2 C 0,0 km/h
09.06.2014 23:00 19,4 C 79 % 1017,8 hPa 0,0 l/m 0,0 km/h N 15,5 C 19,4 C 0,8 km/h
10.06.2014 00:00 18,1 C 81 % 1017,9 hPa 0,0 l/m 0,0 km/h N 14,8 C 18,1 C 0,0 km/h
10.06.2014 01:00 17,0 C 83 % 1017,7 hPa 0,0 l/m 0,0 km/h N 14,0 C 17,0 C 0,0 km/h
10.06.2014 02:00 16,1 C 83 % 1017,7 hPa 0,0 l/m 0,0 km/h N 13,2 C 16,1 C 0,0 km/h
10.06.2014 03:00 15,3 C 83 % 1017,8 hPa 0,0 l/m 0,0 km/h N 12,4 C 15,3 C 0,0 km/h
10.06.2014 04:00 14,5 C 83 % 1017,6 hPa 0,0 l/m 0,0 km/h N 11,7 C 14,5 C 0,0 km/h
10.06.2014 05:00 14,0 C 82 % 1017,5 hPa 0,0 l/m 0,0 km/h N 10,9 C 14,0 C 0,4 km/h
10.06.2014 06:00 15,0 C 79 % 1017,7 hPa 0,0 l/m 0,0 km/h N 11,3 C 15,0 C 0,0 km/h
10.06.2014 07:00 17,2 C 76 % 1017,8 hPa 0,0 l/m 0,4 km/h N 13,0 C 17,2 C 3,2 km/h
10.06.2014 08:00 21,4 C 78 % 1017,5 hPa 0,0 l/m 0,4 km/h N 17,2 C 21,4 C 3,2 km/h
10.06.2014 09:00 26,2 C 62 % 1017,5 hPa 0,0 l/m 0,4 km/h N 18,3 C 26,2 C 4,8 km/h
10.06.2014 10:00 28,9 C 54 % 1017,5 hPa 0,0 l/m 2,7 km/h N 18,5 C 28,9 C 11,7 km/h
10.06.2014 11:00 30,7 C 50 % 1017,4 hPa 0,0 l/m 1,8 km/h N 19,0 C 30,7 C 10,9 km/h
10.06.2014 12:00 32,6 C 44 % 1017,2 hPa 0,0 l/m 2,7 km/h N 18,8 C 32,6 C 12,1 km/h
10.06.2014 13:00 33,3 C 42 % 1016,8 hPa 0,0 l/m 3,2 km/h N 18,7 C 33,3 C 14,5 km/h
10.06.2014 14:00 33,8 C 36 % 1016,5 hPa 0,0 l/m 5,0 km/h N 16,7 C 33,8 C 18,9 km/h
10.06.2014 15:00 33,5 C 35 % 1016,1 hPa 0,0 l/m 4,0 km/h N 15,8 C 33,5 C 17,3 km/h
10.06.2014 16:00 32,8 C 34 % 1015,6 hPa 0,0 l/m 4,4 km/h N 14,8 C 32,8 C 14,5 km/h
10.06.2014 17:00 32,9 C 36 % 1015,5 hPa 0,0 l/m 3,0 km/h N 15,8 C 32,9 C 12,9 km/h
10.06.2014 18:00 32,7 C 39 % 1015,3 hPa 0,0 l/m 1,9 km/h N 16,6 C 32,7 C 9,7 km/h
10.06.2014 19:00 31,7 C 43 % 1015,4 hPa 0,0 l/m 1,1 km/h N 17,4 C 31,7 C 6,0 km/h
10.06.2014 20:00 30,0 C 51 % 1015,5 hPa 0,0 l/m 0,0 km/h N 18,6 C 30,0 C 0,0 km/h
10.06.2014 21:00 25,1 C 63 % 1015,8 hPa 0,0 l/m 0,1 km/h N 17,4 C 25,1 C 0,8 km/h
10.06.2014 22:00 22,2 C 70 % 1016,2 hPa 0,0 l/m 0,0 km/h N 16,5 C 22,2 C 0,0 km/h
10.06.2014 23:00 20,1 C 77 % 1016,6 hPa 0,0 l/m 0,0 km/h N 15,9 C 20,1 C 0,0 km/h
11.06.2014 00:00 18,9 C 80 % 1016,8 hPa 0,0 l/m 0,0 km/h N 15,4 C 18,9 C 0,0 km/h
11.06.2014 01:00 18,1 C 81 % 1016,5 hPa 0,0 l/m 0,0 km/h N 14,8 C 18,1 C 0,0 km/h
11.06.2014 02:00 17,5 C 81 % 1016,7 hPa 0,0 l/m 0,0 km/h N 14,2 C 17,5 C 0,0 km/h
11.06.2014 03:00 16,6 C 82 % 1017,1 hPa 0,0 l/m 0,0 km/h N 13,5 C 16,6 C 0,0 km/h
11.06.2014 04:00 15,9 C 83 % 1017,3 hPa 0,0 l/m 0,0 km/h N 13,0 C 15,9 C 0,0 km/h
11.06.2014 05:00 15,8 C 83 % 1017,4 hPa 0,0 l/m 0,2 km/h N 12,8 C 15,8 C 2,4 km/h
11.06.2014 06:00 17,1 C 83 % 1017,7 hPa 0,0 l/m 0,8 km/h N 14,1 C 17,1 C 5,2 km/h
11.06.2014 07:00 20,0 C 79 % 1018,1 hPa 0,0 l/m 1,6 km/h N 16,2 C 20,0 C 6,4 km/h
11.06.2014 08:00 24,2 C 69 % 1018,2 hPa 0,0 l/m 0,7 km/h N 18,1 C 24,2 C 6,0 km/h
11.06.2014 09:00 26,6 C 60 % 1018,3 hPa 0,0 l/m 2,6 km/h N 18,2 C 26,6 C 10,1 km/h
11.06.2014 10:00 27,7 C 56 % 1018,3 hPa 0,0 l/m 4,9 km/h N 17,9 C 27,7 C 14,5 km/h
11.06.2014 11:00 28,4 C 53 % 1018,3 hPa 0,0 l/m 5,7 km/h N 17,9 C 28,4 C 15,7 km/h
11.06.2014 12:00 29,7 C 51 % 1018,0 hPa 0,0 l/m 3,5 km/h N 18,4 C 29,7 C 12,9 km/h
11.06.2014 13:00 30,8 C 47 % 1017,6 hPa 0,0 l/m 4,6 km/h N 18,1 C 30,8 C 16,1 km/h
11.06.2014 14:00 31,8 C 42 % 1017,4 hPa 0,0 l/m 4,2 km/h N 17,2 C 31,8 C 14,5 km/h
11.06.2014 15:00 32,1 C 43 % 1017,0 hPa 0,0 l/m 4,0 km/h N 18,0 C 32,1 C 13,7 km/h
11.06.2014 16:00 32,4 C 43 % 1016,4 hPa 0,0 l/m 2,7 km/h N 18,3 C 32,4 C 12,1 km/h
11.06.2014 17:00 33,0 C 40 % 1016,2 hPa 0,0 l/m 3,0 km/h N 17,6 C 33,0 C 13,3 km/h
11.06.2014 18:00 32,6 C 41 % 1016,3 hPa 0,0 l/m 3,8 km/h N 17,6 C 32,6 C 12,5 km/h
11.06.2014 19:00 31,5 C 44 % 1016,9 hPa 0,0 l/m 3,2 km/h N 17,5 C 31,5 C 14,5 km/h
11.06.2014 20:00 27,6 C 46 % 1017,8 hPa 0,0 l/m 5,8 km/h N 14,8 C 27,5 C 20,9 km/h
11.06.2014 21:00 25,7 C 50 % 1017,8 hPa 0,0 l/m 0,1 km/h N 14,6 C 25,7 C 1,2 km/h
11.06.2014 22:00 24,7 C 54 % 1019,2 hPa 0,0 l/m 3,3 km/h N 14,6 C 24,6 C 14,1 km/h
11.06.2014 23:00 24,0 C 57 % 1019,2 hPa 0,0 l/m 0,6 km/h N 15,0 C 24,0 C 3,6 km/h
12.06.2014 00:00 22,5 C 63 % 1019,0 hPa 0,0 l/m 0,1 km/h N 15,1 C 22,5 C 1,6 km/h
12.06.2014 01:00 21,8 C 65 % 1019,1 hPa 0,0 l/m 0,7 km/h N 15,0 C 21,8 C 5,2 km/h
12.06.2014 02:00 23,6 C 59 % 1018,9 hPa 0,0 l/m 3,0 km/h N 15,0 C 23,6 C 11,7 km/h
12.06.2014 03:00 23,3 C 61 % 1019,1 hPa 0,0 l/m 3,4 km/h N 15,3 C 23,3 C 12,9 km/h
12.06.2014 04:00 22,3 C 68 % 1019,4 hPa 0,0 l/m 4,5 km/h N 16,1 C 22,3 C 15,7 km/h
12.06.2014 05:00 21,6 C 74 % 1019,7 hPa 0,0 l/m 5,3 km/h N 16,8 C 21,6 C 16,9 km/h
12.06.2014 06:00 21,5 C 77 % 1020,0 hPa 0,0 l/m 6,2 km/h N 17,3 C 21,3 C 22,1 km/h
12.06.2014 07:00 21,9 C 77 % 1020,5 hPa 0,0 l/m 5,7 km/h N 17,7 C 21,8 C 19,7 km/h
12.06.2014 08:00 22,7 C 74 % 1020,6 hPa 0,0 l/m 8,2 km/h N 17,7 C 22,1 C 24,5 km/h
12.06.2014 09:00 23,2 C 72 % 1020,9 hPa 0,0 l/m 7,5 km/h N 17,8 C 22,9 C 23,7 km/h
12.06.2014 10:00 24,0 C 69 % 1020,8 hPa 0,0 l/m 9,1 km/h N 18,0 C 23,3 C 26,2 km/h
12.06.2014 11:00 25,1 C 64 % 1020,8 hPa 0,0 l/m 8,8 km/h N 17,9 C 24,5 C 23,7 km/h
12.06.2014 12:00 26,1 C 60 % 1020,6 hPa 0,0 l/m 9,2 km/h N 17,6 C 25,5 C 27,4 km/h
12.06.2014 13:00 26,6 C 60 % 1020,1 hPa 0,0 l/m 8,6 km/h N 18,1 C 26,2 C 25,8 km/h
12.06.2014 14:00 26,7 C 57 % 1020,0 hPa 0,0 l/m 7,9 km/h N 17,5 C 26,4 C 23,7 km/h
12.06.2014 15:00 26,4 C 57 % 1019,6 hPa 0,0 l/m 8,6 km/h N 17,2 C 26,0 C 18,5 km/h
12.06.2014 16:00 26,9 C 55 % 1018,9 hPa 0,0 l/m 6,7 km/h N 16,9 C 26,8 C 20,1 km/h
12.06.2014 17:00 27,8 C 52 % 1018,5 hPa 0,0 l/m 4,7 km/h N 16,9 C 27,7 C 16,9 km/h
12.06.2014 18:00 27,6 C 51 % 1017,9 hPa 0,0 l/m 4,5 km/h N 16,6 C 27,6 C 16,1 km/h
12.06.2014 19:00 27,0 C 53 % 1017,5 hPa 0,0 l/m 2,1 km/h N 16,6 C 27,0 C 9,7 km/h
12.06.2014 20:00 26,1 C 57 % 1017,6 hPa 0,0 l/m 0,0 km/h N 16,7 C 26,1 C 0,8 km/h
12.06.2014 21:00 23,5 C 65 % 1018,0 hPa 0,0 l/m 0,0 km/h N 16,6 C 23,5 C 0,0 km/h
12.06.2014 22:00 21,8 C 72 % 1017,8 hPa 0,0 l/m 0,0 km/h N 16,5 C 21,8 C 0,0 km/h
12.06.2014 23:00 20,9 C 73 % 1017,7 hPa 0,0 l/m 0,8 km/h N 15,9 C 20,9 C 6,0 km/h
13.06.2014 00:00 21,3 C 68 % 1017,9 hPa 0,0 l/m 1,5 km/h N 15,0 C 21,3 C 8,1 km/h
13.06.2014 01:00 20,9 C 66 % 1018,0 hPa 0,0 l/m 2,3 km/h N 14,3 C 20,9 C 9,7 km/h
13.06.2014 02:00 20,5 C 64 % 1018,0 hPa 0,0 l/m 2,1 km/h N 13,5 C 20,5 C 10,4 km/h
13.06.2014 03:00 19,7 C 66 % 1017,5 hPa 0,0 l/m 2,6 km/h N 13,1 C 19,7 C 11,7 km/h
13.06.2014 04:00 18,8 C 66 % 1017,3 hPa 0,0 l/m 1,6 km/h N 12,3 C 18,8 C 8,4 km/h
13.06.2014 05:00 18,9 C 64 % 1017,4 hPa 0,0 l/m 2,1 km/h N 11,9 C 18,9 C 8,8 km/h
13.06.2014 06:00 18,7 C 62 % 1017,6 hPa 0,0 l/m 1,5 km/h N 11,2 C 18,7 C 6,8 km/h
13.06.2014 07:00 19,0 C 59 % 1017,7 hPa 0,0 l/m 3,3 km/h N 10,7 C 19,0 C 10,8 km/h
13.06.2014 08:00 20,0 C 58 % 1017,9 hPa 0,0 l/m 4,3 km/h N 11,3 C 20,0 C 13,7 km/h
13.06.2014 09:00 20,9 C 57 % 1017,6 hPa 0,0 l/m 4,3 km/h N 12,1 C 20,9 C 12,9 km/h
13.06.2014 10:00 22,0 C 53 % 1017,2 hPa 0,0 l/m 5,1 km/h N 11,8 C 22,0 C 16,5 km/h
13.06.2014 11:00 22,9 C 51 % 1016,8 hPa 0,0 l/m 4,8 km/h N 12,2 C 22,9 C 18,1 km/h
13.06.2014 12:00 23,2 C 51 % 1016,3 hPa 0,0 l/m 6,2 km/h N 12,5 C 23,2 C 21,3 km/h
13.06.2014 13:00 23,9 C 49 % 1015,7 hPa 0,0 l/m 5,1 km/h N 12,6 C 23,9 C 20,5 km/h
13.06.2014 14:00 24,6 C 47 % 1014,8 hPa 0,0 l/m 7,6 km/h N 12,6 C 24,3 C 22,5 km/h
13.06.2014 15:00 24,9 C 48 % 1013,8 hPa 0,0 l/m 6,2 km/h N 13,0 C 24,8 C 22,5 km/h
13.06.2014 16:00 25,1 C 48 % 1012,9 hPa 0,0 l/m 4,4 km/h N 13,1 C 25,1 C 18,9 km/h
13.06.2014 17:00 25,4 C 46 % 1012,1 hPa 0,0 l/m 5,5 km/h N 13,1 C 25,4 C 16,5 km/h
13.06.2014 18:00 24,8 C 47 % 1011,7 hPa 0,0 l/m 3,4 km/h N 12,6 C 24,8 C 14,9 km/h
13.06.2014 19:00 23,4 C 56 % 1011,5 hPa 0,3 l/m 0,5 km/h N 14,0 C 23,4 C 3,6 km/h
13.06.2014 20:00 20,7 C 74 % 1012,0 hPa 0,0 l/m 0,2 km/h N 15,8 C 20,7 C 3,2 km/h
13.06.2014 21:00 19,5 C 69 % 1012,7 hPa 0,0 l/m 1,1 km/h N 13,5 C 19,5 C 6,9 km/h
13.06.2014 22:00 20,9 C 50 % 1013,3 hPa 0,0 l/m 4,4 km/h N 10,0 C 20,9 C 16,1 km/h
13.06.2014 23:00 20,1 C 51 % 1013,5 hPa 0,0 l/m 1,1 km/h N 9,5 C 20,1 C 8,1 km/h
14.06.2014 00:00 19,3 C 54 % 1014,0 hPa 0,0 l/m 2,7 km/h N 9,8 C 19,3 C 12,1 km/h
14.06.2014 01:00 18,5 C 55 % 1014,0 hPa 0,0 l/m 3,5 km/h N 9,1 C 18,5 C 13,3 km/h
14.06.2014 02:00 17,9 C 57 % 1013,8 hPa 0,0 l/m 2,3 km/h N 9,2 C 17,9 C 9,7 km/h
14.06.2014 03:00 17,4 C 57 % 1013,7 hPa 0,0 l/m 4,6 km/h N 8,8 C 17,4 C 18,9 km/h
14.06.2014 04:00 16,8 C 60 % 1013,3 hPa 0,0 l/m 2,9 km/h N 8,8 C 16,8 C 14,1 km/h
14.06.2014 05:00 16,3 C 61 % 1013,2 hPa 0,0 l/m 4,8 km/h N 8,8 C 16,3 C 18,1 km/h
14.06.2014 06:00 16,2 C 64 % 1013,5 hPa 0,0 l/m 2,6 km/h N 9,3 C 16,2 C 10,1 km/h
14.06.2014 07:00 16,4 C 65 % 1014,1 hPa 0,0 l/m 2,8 km/h N 9,9 C 16,4 C 9,6 km/h
14.06.2014 08:00 17,0 C 65 % 1014,1 hPa 0,0 l/m 3,8 km/h N 10,3 C 17,0 C 12,1 km/h
14.06.2014 09:00 17,7 C 64 % 1013,9 hPa 0,0 l/m 4,4 km/h N 10,9 C 17,7 C 15,3 km/h
14.06.2014 10:00 19,0 C 60 % 1013,5 hPa 0,0 l/m 3,4 km/h N 11,1 C 19,0 C 14,1 km/h
14.06.2014 11:00 19,2 C 60 % 1013,4 hPa 0,0 l/m 4,2 km/h N 11,3 C 19,2 C 16,9 km/h
14.06.2014 12:00 17,9 C 73 % 1013,7 hPa 0,3 l/m 2,4 km/h N 13,0 C 17,9 C 10,8 km/h
14.06.2014 13:00 19,7 C 65 % 1013,3 hPa 0,3 l/m 3,8 km/h N 12,8 C 19,7 C 15,7 km/h
14.06.2014 14:00 20,8 C 61 % 1013,2 hPa 0,0 l/m 2,8 km/h N 13,0 C 20,8 C 14,1 km/h
14.06.2014 15:00 21,5 C 57 % 1012,9 hPa 0,0 l/m 3,9 km/h N 12,5 C 21,5 C 20,1 km/h
14.06.2014 16:00 21,6 C 54 % 1012,7 hPa 0,0 l/m 6,2 km/h N 11,7 C 21,6 C 20,5 km/h
14.06.2014 17:00 21,5 C 47 % 1012,4 hPa 0,0 l/m 5,8 km/h N 9,7 C 21,5 C 20,1 km/h
14.06.2014 18:00 20,5 C 44 % 1012,7 hPa 0,0 l/m 4,9 km/h N 7,8 C 20,5 C 17,3 km/h
14.06.2014 19:00 19,9 C 46 % 1013,3 hPa 0,0 l/m 4,3 km/h N 8,0 C 19,9 C 15,3 km/h
14.06.2014 20:00 19,0 C 47 % 1014,0 hPa 0,0 l/m 2,7 km/h N 7,5 C 19,0 C 11,7 km/h
14.06.2014 21:00 18,0 C 54 % 1014,8 hPa 0,0 l/m 2,5 km/h N 8,5 C 18,0 C 10,9 km/h
14.06.2014 22:00 16,9 C 59 % 1015,7 hPa 0,0 l/m 0,4 km/h N 8,9 C 16,9 C 4,8 km/h
14.06.2014 23:00 15,3 C 64 % 1016,2 hPa 0,0 l/m 0,4 km/h N 8,4 C 15,3 C 4,4 km/h
15.06.2014 00:00 14,0 C 67 % 1016,4 hPa 0,0 l/m 0,5 km/h N 8,0 C 14,0 C 4,8 km/h
15.06.2014 01:00 13,4 C 70 % 1016,5 hPa 0,0 l/m 0,3 km/h N 7,9 C 13,4 C 2,4 km/h
15.06.2014 02:00 12,6 C 72 % 1016,3 hPa 0,0 l/m 0,5 km/h N 7,8 C 12,6 C 4,4 km/h
15.06.2014 03:00 11,8 C 75 % 1016,6 hPa 0,0 l/m 0,0 km/h N 7,5 C 11,8 C 0,4 km/h
15.06.2014 04:00 10,9 C 78 % 1016,9 hPa 0,0 l/m 0,0 km/h N 7,2 C 10,9 C 0,0 km/h
15.06.2014 05:00 10,4 C 81 % 1016,9 hPa 0,0 l/m 0,1 km/h N 7,2 C 10,4 C 1,2 km/h
15.06.2014 06:00 12,9 C 77 % 1017,1 hPa 0,0 l/m 2,0 km/h N 8,9 C 12,9 C 8,9 km/h
15.06.2014 07:00 14,8 C 71 % 1017,3 hPa 0,0 l/m 4,2 km/h N 9,5 C 14,8 C 15,3 km/h
15.06.2014 08:00 16,4 C 68 % 1017,5 hPa 0,0 l/m 4,2 km/h N 10,4 C 16,4 C 13,3 km/h
15.06.2014 09:00 17,8 C 64 % 1017,6 hPa 0,0 l/m 4,1 km/h N 10,9 C 17,8 C 15,3 km/h
15.06.2014 10:00 18,6 C 61 % 1017,6 hPa 0,0 l/m 3,1 km/h N 10,8 C 18,6 C 10,9 km/h
15.06.2014 11:00 18,8 C 59 % 1017,7 hPa 0,0 l/m 4,1 km/h N 10,7 C 18,8 C 14,1 km/h
15.06.2014 12:00 19,2 C 59 % 1017,6 hPa 0,0 l/m 4,5 km/h N 11,0 C 19,2 C 15,7 km/h
15.06.2014 13:00 19,3 C 60 % 1017,6 hPa 0,0 l/m 4,9 km/h N 11,2 C 19,3 C 15,7 km/h
15.06.2014 14:00 19,6 C 58 % 1017,2 hPa 0,0 l/m 3,6 km/h N 11,0 C 19,6 C 14,5 km/h
15.06.2014 15:00 20,6 C 51 % 1017,0 hPa 0,0 l/m 6,2 km/h N 10,2 C 20,5 C 19,7 km/h
15.06.2014 16:00 20,7 C 50 % 1016,7 hPa 0,0 l/m 7,4 km/h N 9,9 C 20,3 C 20,9 km/h
15.06.2014 17:00 21,0 C 50 % 1016,2 hPa 0,0 l/m 5,1 km/h N 10,1 C 21,0 C 17,3 km/h
15.06.2014 18:00 21,2 C 49 % 1016,0 hPa 0,0 l/m 4,7 km/h N 9,9 C 21,2 C 14,9 km/h
15.06.2014 19:00 20,6 C 50 % 1016,4 hPa 0,0 l/m 3,8 km/h N 9,9 C 20,6 C 14,5 km/h
15.06.2014 20:00 19,2 C 54 % 1016,6 hPa 0,0 l/m 2,8 km/h N 9,6 C 19,2 C 13,3 km/h
15.06.2014 21:00 17,3 C 61 % 1017,1 hPa 0,0 l/m 0,9 km/h N 9,7 C 17,3 C 5,2 km/h
15.06.2014 22:00 16,5 C 64 % 1017,9 hPa 0,0 l/m 1,4 km/h N 9,5 C 16,5 C 9,2 km/h
15.06.2014 23:00 15,8 C 64 % 1018,4 hPa 0,0 l/m 1,1 km/h N 9,0 C 15,8 C 8,8 km/h
Min-Datum _ 15.06.14 10.06.14 13.06.14 - 09.06.14 - 15.06.14 15.06.14 09.06.14
_ Min-Zeit 05:15 16:30 19:00 - 00:00 - 05:00 05:15 00:00
Minimum _ 10,3 C 32 % 1011,4 hPa - 0,0 km/h - 6,9 C 10,3 C 0,0 km/h
Max-Datum _ 10.06.14 09.06.14 12.06.14 13.06.14 12.06.14 - 10.06.14 10.06.14 12.06.14
_ Max-Zeit 15:15 03:45 09:15 19:45 15:16 - 12:15 15:00 09:15
Maximum _ 34,1 C 83 % 1021,0 hPa 0,3 l/m 11,3 km/h
N
- 20,1 C 33,9 C 32,2 km/h
N
Durchschnitt _ 22,2 C 61 % 1016,9 hPa #0,8 l/m 2,8 km/h N 13,8 C 22,1 C 10,7 km/h